createdAt,value
2019-03-18T00:01:29.178Z,100273.38
2019-03-18T00:04:03.894Z,100277.30
2019-03-18T00:06:42.653Z,100279.50
2019-03-18T00:09:12.819Z,100286.94
2019-03-18T00:11:42.984Z,100294.79
2019-03-18T00:14:13.275Z,100281.69
2019-03-18T00:16:46.169Z,100288.68
2019-03-18T00:19:35.902Z,100299.16
2019-03-18T00:22:06.606Z,100302.68
2019-03-18T00:24:36.828Z,100292.19
2019-03-18T00:27:09.755Z,100294.81
2019-03-18T00:29:39.952Z,100291.30
2019-03-18T00:32:10.278Z,100287.80
2019-03-18T00:34:42.893Z,100281.67
2019-03-18T00:37:13.232Z,100288.22
2019-03-18T00:39:43.503Z,100286.05
2019-03-18T00:42:13.870Z,100289.99
2019-03-18T00:44:44.526Z,100295.66
2019-03-18T00:47:18.511Z,100300.05
2019-03-18T00:49:53.283Z,100286.47
2019-03-18T00:52:30.690Z,100287.80
2019-03-18T00:55:01.099Z,100293.92
2019-03-18T00:57:35.321Z,100297.87
2019-03-18T01:00:15.112Z,100300.08
2019-03-18T01:02:53.482Z,100307.94
2019-03-18T01:05:27.110Z,100317.55
2019-03-18T01:08:03.638Z,100305.73
2019-03-18T01:10:50.333Z,100302.66
2019-03-18T01:13:32.223Z,100301.80
2019-03-18T01:16:05.597Z,100298.73
2019-03-18T01:18:39.344Z,100301.80
2019-03-18T01:21:19.503Z,100296.52
2019-03-18T01:23:55.376Z,100292.59
2019-03-18T01:26:29.182Z,100288.22
2019-03-18T01:28:59.492Z,100294.31
2019-03-18T01:31:31.654Z,100296.06
2019-03-18T01:34:02.039Z,100291.69
2019-03-18T01:36:33.678Z,100290.84
2019-03-18T01:39:06.307Z,100292.56
2019-03-18T01:41:36.582Z,100291.70
2019-03-18T01:44:06.718Z,100287.77
2019-03-18T01:46:38.510Z,100304.38
2019-03-18T01:49:08.796Z,100305.24
2019-03-18T01:51:41.782Z,100298.23
2019-03-18T01:54:16.416Z,100299.09
2019-03-18T01:56:49.631Z,100315.28
2019-03-18T01:59:20.904Z,100316.18
2019-03-18T02:01:57.150Z,100331.06
2019-03-18T02:04:35.328Z,100335.42
2019-03-18T02:07:06.047Z,100332.80
2019-03-18T02:09:36.195Z,100329.72
2019-03-18T02:12:06.581Z,100320.98
2019-03-18T02:14:36.863Z,100321.83
2019-03-18T02:17:07.176Z,100323.59
2019-03-18T02:19:41.143Z,100327.52
2019-03-18T02:22:11.400Z,100322.25
2019-03-18T02:24:41.667Z,100317.84
2019-03-18T02:27:17.640Z,100323.11
2019-03-18T02:29:47.819Z,100315.67
2019-03-18T02:32:19.080Z,100322.20
2019-03-18T02:34:55.020Z,100317.42
2019-03-18T02:37:35.856Z,100320.48
2019-03-18T02:40:12.980Z,100322.23
2019-03-18T02:42:44.095Z,100326.14
2019-03-18T02:45:24.342Z,100327.88
2019-03-18T02:47:54.267Z,100327.00
2019-03-18T02:50:24.511Z,100330.50
2019-03-18T02:52:55.793Z,100327.03
2019-03-18T02:55:26.027Z,100320.89
2019-03-18T02:57:58.219Z,100328.77
2019-03-18T03:00:28.598Z,100338.42
2019-03-18T03:03:00.171Z,100339.25
2019-03-18T03:05:31.660Z,100330.94
2019-03-18T03:08:33.765Z,100338.34
2019-03-18T03:11:09.792Z,100334.43
2019-03-18T03:13:50.279Z,100352.83
2019-03-18T03:16:27.002Z,100341.02
2019-03-18T03:18:56.211Z,100348.02
2019-03-18T03:21:26.354Z,100346.27
2019-03-18T03:23:56.567Z,100346.27
2019-03-18T03:26:30.094Z,100354.14
2019-03-18T03:29:02.723Z,100368.14
2019-03-18T03:31:34.508Z,100359.40
2019-03-18T03:34:13.026Z,100363.76
2019-03-18T03:36:41.926Z,100368.55
2019-03-18T03:41:58.018Z,100381.64
2019-03-18T03:44:34.981Z,100390.88
2019-03-18T03:47:07.368Z,100392.20
2019-03-18T03:49:39.072Z,100385.66
2019-03-18T03:52:09.300Z,100383.47
2019-03-18T03:54:39.492Z,100390.48
2019-03-18T03:57:09.974Z,100393.98
2019-03-18T03:59:43.624Z,100395.73
2019-03-18T04:02:16.895Z,100399.67
2019-03-18T04:05:05.516Z,100394.86
2019-03-18T04:07:23.313Z,100404.91
2019-03-18T04:09:53.466Z,100392.25
2019-03-18T04:12:24.468Z,100403.59
2019-03-18T04:14:54.499Z,100411.89
2019-03-18T04:17:25.907Z,100413.20
2019-03-18T04:19:56.597Z,100414.54
2019-03-18T04:22:26.825Z,100417.17
2019-03-18T04:24:57.309Z,100420.66
2019-03-18T04:27:27.751Z,100429.42
2019-03-18T04:29:57.893Z,100414.98
2019-03-18T04:32:28.263Z,100423.71
2019-03-18T04:35:01.947Z,100423.28
2019-03-18T04:37:35.438Z,100432.45
2019-03-18T04:40:05.760Z,100440.75
2019-03-18T04:42:36.013Z,100437.28
2019-03-18T04:45:06.696Z,100442.95
2019-03-18T04:47:44.315Z,100441.20
2019-03-18T04:50:14.948Z,100449.08
2019-03-18T04:52:51.133Z,100457.39
2019-03-18T04:55:27.236Z,100450.37
2019-03-18T04:57:57.384Z,100444.28
2019-03-18T05:00:28.735Z,100456.52
2019-03-18T05:02:58.889Z,100463.94
2019-03-18T05:05:29.245Z,100464.40
2019-03-18T05:07:59.429Z,100472.27
2019-03-18T05:10:31.861Z,100495.00
2019-03-18T05:13:02.140Z,100483.64
2019-03-18T05:15:32.489Z,100488.45
2019-03-18T05:18:02.655Z,100478.39
2019-03-18T05:20:32.856Z,100491.06
2019-03-18T05:23:04.482Z,100490.63
2019-03-18T05:25:34.932Z,100488.88
2019-03-18T05:28:10.137Z,100491.95
2019-03-18T05:30:40.418Z,100494.13
2019-03-18T05:33:13.101Z,100498.49
2019-03-18T05:35:48.728Z,100498.08
2019-03-18T05:38:18.834Z,100511.19
2019-03-18T05:40:51.060Z,100508.56
2019-03-18T05:43:21.386Z,100522.13
2019-03-18T05:45:54.634Z,100525.63
2019-03-18T05:48:25.794Z,100523.02
2019-03-18T05:50:57.561Z,100524.31
2019-03-18T05:53:27.761Z,100529.12
2019-03-18T05:55:58.026Z,100522.98
2019-03-18T05:58:28.225Z,100533.06
2019-03-18T06:00:58.542Z,100531.73
2019-03-18T06:03:28.693Z,100524.31
2019-03-18T06:05:58.911Z,100529.55
2019-03-18T06:08:30.753Z,100532.62
2019-03-18T06:11:02.052Z,100536.98
2019-03-18T06:13:32.173Z,100537.87
2019-03-18T06:16:04.446Z,100549.23
2019-03-18T06:18:34.300Z,100536.13
2019-03-18T06:21:04.503Z,100539.63
2019-03-18T06:23:35.158Z,100541.80
2019-03-18T06:26:05.574Z,100538.75
2019-03-18T06:28:39.023Z,100552.75
2019-03-18T06:31:09.225Z,100549.23
2019-03-18T06:33:39.575Z,100543.94
2019-03-18T06:36:12.153Z,100550.95
2019-03-18T06:38:44.346Z,100552.70
2019-03-18T06:41:14.190Z,100570.22
2019-03-18T06:43:44.834Z,100566.27
2019-03-18T06:46:15.356Z,100567.16
2019-03-18T06:48:46.978Z,100569.31
2019-03-18T06:51:17.192Z,100576.73
2019-03-18T06:53:47.396Z,100570.16
2019-03-18T06:56:17.621Z,100582.44
2019-03-18T06:58:47.820Z,100587.67
2019-03-18T07:01:17.997Z,100584.62
2019-03-18T07:03:48.627Z,100594.27
2019-03-18T07:06:18.877Z,100597.31
2019-03-18T07:08:49.099Z,100614.84
2019-03-18T07:11:19.589Z,100604.78
2019-03-18T07:13:49.745Z,100611.72
2019-03-18T07:16:21.693Z,100616.99
2019-03-18T07:18:51.927Z,100621.77
2019-03-18T07:21:22.195Z,100619.16
2019-03-18T07:23:52.401Z,100618.27
2019-03-18T07:26:22.576Z,100637.97
2019-03-18T07:28:54.947Z,100637.08
2019-03-18T07:31:25.248Z,100637.97
2019-03-18T07:33:59.911Z,100642.34
2019-03-18T07:36:30.255Z,100648.91
2019-03-18T07:39:00.428Z,100651.45
2019-03-18T07:41:31.225Z,100654.48
2019-03-18T07:44:02.885Z,100657.48
2019-03-18T07:46:33.085Z,100657.97
2019-03-18T07:49:03.233Z,100662.38
2019-03-18T07:51:33.429Z,100666.75
2019-03-18T07:54:03.677Z,100672.06
2019-03-18T07:56:33.813Z,100665.00
2019-03-18T07:59:03.992Z,100676.83
2019-03-18T08:01:34.192Z,100665.45
2019-03-18T08:04:04.424Z,100665.41
2019-03-18T08:06:34.617Z,100670.13
2019-03-18T08:09:07.635Z,100674.90
2019-03-18T08:11:37.993Z,100676.22
2019-03-18T08:14:08.287Z,100685.42
2019-03-18T08:16:38.405Z,100674.06
2019-03-18T08:19:11.119Z,100679.80
2019-03-18T08:21:41.974Z,100680.70
2019-03-18T08:24:12.196Z,100694.73
2019-03-18T08:26:42.385Z,100693.80
2019-03-18T08:29:12.619Z,100699.05
2019-03-18T08:31:43.882Z,100700.04
2019-03-18T08:34:15.150Z,100706.66
2019-03-18T08:36:45.485Z,100707.97
2019-03-18T08:39:15.655Z,100705.73
2019-03-18T08:41:45.929Z,100718.06
2019-03-18T08:44:16.077Z,100713.26
2019-03-18T08:46:46.255Z,100717.26
2019-03-18T08:49:16.408Z,100729.97
2019-03-18T08:51:48.920Z,100722.95
2019-03-18T08:54:19.067Z,100729.98
2019-03-18T08:56:49.540Z,100745.34
2019-03-18T08:59:19.723Z,100746.63
2019-03-18T09:01:49.913Z,100742.63
2019-03-18T09:04:20.444Z,100750.07
2019-03-18T09:06:50.656Z,100751.70
2019-03-18T09:09:20.960Z,100755.58
2019-03-18T09:11:51.135Z,100749.47
2019-03-18T09:14:21.370Z,100749.36
2019-03-18T09:16:51.578Z,100749.83
2019-03-18T09:19:21.857Z,100746.65
2019-03-18T09:21:57.580Z,100751.13
2019-03-18T09:24:30.491Z,100752.81
2019-03-18T09:27:02.518Z,100755.50
2019-03-18T09:29:34.291Z,100766.00
2019-03-18T09:32:04.517Z,100759.52
2019-03-18T09:34:34.673Z,100751.53
2019-03-18T09:37:04.836Z,100768.00
2019-03-18T09:39:35.048Z,100768.42
2019-03-18T09:42:05.274Z,100760.58
2019-03-18T09:44:35.501Z,100762.22
2019-03-18T09:47:05.751Z,100768.34
2019-03-18T09:49:35.949Z,100773.86
2019-03-18T09:52:06.112Z,100767.52
2019-03-18T09:54:37.794Z,100769.37
2019-03-18T09:57:11.892Z,100779.12
2019-03-18T09:59:45.847Z,100782.80
2019-03-18T10:02:15.968Z,100784.98
2019-03-18T10:04:49.063Z,100787.95
2019-03-18T10:07:19.252Z,100791.19
2019-03-18T10:09:49.422Z,100786.88
2019-03-18T10:12:19.596Z,100797.42
2019-03-18T10:14:49.960Z,100792.45
2019-03-18T10:17:23.213Z,100789.03
2019-03-18T10:19:53.756Z,100790.20
2019-03-18T10:22:26.805Z,100797.83
2019-03-18T10:24:57.963Z,100788.99
2019-03-18T10:27:28.098Z,100813.69
2019-03-18T10:29:58.376Z,100792.58
2019-03-18T10:32:29.779Z,100803.20
2019-03-18T10:35:01.170Z,100794.36
2019-03-18T10:37:31.319Z,100813.63
2019-03-18T10:40:01.460Z,100826.23
2019-03-18T10:42:31.709Z,100882.62
2019-03-18T10:45:01.908Z,100937.45
2019-03-18T10:47:32.132Z,100950.78
2019-03-18T10:50:02.271Z,100926.67
2019-03-18T10:52:32.598Z,100926.84
2019-03-18T10:55:02.765Z,100922.23
2019-03-18T10:57:33.103Z,100909.38
2019-03-18T11:00:03.286Z,100903.78
2019-03-18T11:02:33.830Z,100906.51
2019-03-18T11:05:04.006Z,100908.77
2019-03-18T11:07:34.176Z,100905.75
2019-03-18T11:10:08.460Z,100912.80
2019-03-18T11:12:38.692Z,100915.37
2019-03-18T11:15:10.627Z,100916.20
2019-03-18T11:17:40.912Z,100923.22
2019-03-18T11:20:11.588Z,100927.23
2019-03-18T11:22:41.859Z,100925.47
2019-03-18T11:25:12.086Z,100923.29
2019-03-18T11:27:42.229Z,100933.73
2019-03-18T11:30:15.730Z,100926.27
2019-03-18T11:32:45.896Z,100931.06
2019-03-18T11:35:16.736Z,100921.41
2019-03-18T11:37:48.518Z,100918.37
2019-03-18T11:40:18.680Z,100925.92
2019-03-18T11:42:52.045Z,100906.66
2019-03-18T11:45:22.341Z,100928.58
2019-03-18T11:47:54.791Z,100925.96
2019-03-18T11:50:24.919Z,100933.44
2019-03-18T11:52:55.165Z,100922.45
2019-03-18T11:55:25.289Z,100922.00
2019-03-18T11:57:55.502Z,100917.22
2019-03-18T12:00:27.137Z,100928.60
2019-03-18T12:02:57.242Z,100917.60
2019-03-18T12:05:27.409Z,100915.02
2019-03-18T12:07:57.608Z,100918.05
2019-03-18T12:10:27.745Z,100911.04
2019-03-18T12:12:58.042Z,100917.19
2019-03-18T12:15:28.195Z,100921.13
2019-03-18T12:17:58.290Z,100926.84
2019-03-18T12:20:33.210Z,100916.33
2019-03-18T12:23:03.553Z,100922.47
2019-03-18T12:25:34.043Z,100927.27
2019-03-18T12:28:05.453Z,100921.55
2019-03-18T12:30:35.883Z,100922.42
2019-03-18T12:33:06.058Z,100919.34
2019-03-18T12:35:36.166Z,100917.95
2019-03-18T12:38:07.060Z,100924.10
2019-03-18T12:40:37.386Z,100921.03
2019-03-18T12:43:07.533Z,100922.30
2019-03-18T12:45:37.701Z,100912.20
2019-03-18T12:48:09.828Z,100935.09
2019-03-18T12:50:55.248Z,100920.45
2019-03-18T12:53:12.165Z,100924.07
2019-03-18T12:55:42.801Z,100935.98
2019-03-18T12:58:12.961Z,100955.89
2019-03-18T13:00:43.446Z,100953.51
2019-03-18T13:03:16.868Z,100983.45
2019-03-18T13:05:47.042Z,100992.20
2019-03-18T13:08:17.234Z,100993.90
2019-03-18T13:10:47.670Z,101006.41
2019-03-18T13:13:17.800Z,101005.45
2019-03-18T13:15:47.986Z,101002.92
2019-03-18T13:18:18.074Z,100995.05
2019-03-18T13:20:50.059Z,100996.45
2019-03-18T13:23:20.526Z,100996.87
2019-03-18T13:25:50.669Z,100991.20
2019-03-18T13:28:20.777Z,100991.69
2019-03-18T13:30:51.930Z,100995.22
2019-03-18T13:33:22.097Z,100990.42
2019-03-18T13:35:52.446Z,100990.42
2019-03-18T13:38:22.582Z,100992.66
2019-03-18T13:40:52.718Z,100987.41
2019-03-18T13:43:24.237Z,100984.77
2019-03-18T13:45:55.787Z,100986.54
2019-03-18T13:48:26.729Z,100995.31
2019-03-18T13:50:56.856Z,100999.27
2019-03-18T13:53:29.126Z,100998.83
2019-03-18T13:55:59.233Z,100996.20
2019-03-18T13:58:29.470Z,100996.63
2019-03-18T14:01:01.253Z,100991.34
2019-03-18T14:03:31.448Z,100992.66
2019-03-18T14:06:01.685Z,100987.39
2019-03-18T14:08:31.814Z,100992.67
2019-03-18T14:11:02.011Z,100992.23
2019-03-18T14:13:32.102Z,100989.13
2019-03-18T14:16:04.862Z,100993.47
2019-03-18T14:18:34.969Z,100989.08
2019-03-18T14:21:11.644Z,100985.95
2019-03-18T14:23:41.770Z,100988.14
2019-03-18T14:26:12.878Z,100998.20
2019-03-18T14:28:44.209Z,100994.67
2019-03-18T14:31:16.118Z,101003.83
2019-03-18T14:33:48.942Z,100994.01
2019-03-18T14:36:19.174Z,100999.15
2019-03-18T14:38:49.268Z,101004.06
2019-03-18T14:41:19.455Z,101005.75
2019-03-18T14:43:49.685Z,101012.27
2019-03-18T14:46:20.390Z,101014.27
2019-03-18T14:48:50.415Z,101016.41
2019-03-18T14:51:20.519Z,101014.69
2019-03-18T14:53:51.016Z,101033.36
2019-03-18T14:56:22.719Z,101028.21
2019-03-18T14:58:53.761Z,101037.50
2019-03-18T15:01:23.946Z,101064.48
2019-03-18T15:03:54.028Z,101092.75
2019-03-18T15:06:24.190Z,101122.38
2019-03-18T15:08:54.285Z,101127.00
2019-03-18T15:11:24.627Z,101111.67
2019-03-18T15:13:54.793Z,101103.86
2019-03-18T15:16:26.126Z,101119.59
2019-03-18T15:18:56.249Z,101115.23
2019-03-18T15:21:26.863Z,101123.08
2019-03-18T15:23:57.021Z,101117.86
2019-03-18T15:26:27.161Z,101119.58
2019-03-18T15:28:57.284Z,101123.98
2019-03-18T15:31:27.503Z,101118.73
2019-03-18T15:33:57.662Z,101112.66
2019-03-18T15:36:27.825Z,101110.54
2019-03-18T15:38:57.947Z,101109.27
2019-03-18T15:41:28.099Z,101118.94
2019-03-18T15:43:58.285Z,101122.44
2019-03-18T15:46:28.404Z,101122.43
2019-03-18T15:48:58.553Z,101124.20
2019-03-18T15:51:28.680Z,101136.08
2019-03-18T15:53:58.829Z,101135.70
2019-03-18T15:56:28.922Z,101140.10
2019-03-18T15:58:59.095Z,101149.34
2019-03-18T16:01:29.290Z,101160.33
2019-03-18T16:03:59.451Z,101165.98
2019-03-18T16:06:30.623Z,101179.09
2019-03-18T16:09:05.775Z,101196.16
2019-03-18T16:11:36.075Z,101188.63
2019-03-18T16:14:06.196Z,101201.76
2019-03-18T16:16:36.303Z,101200.47
2019-03-18T16:19:06.525Z,101199.66
2019-03-18T16:21:36.996Z,101204.64
2019-03-18T16:24:07.293Z,101198.99
2019-03-18T16:26:39.132Z,101206.44
2019-03-18T16:29:09.320Z,101198.84
2019-03-18T16:31:44.723Z,101208.55
2019-03-18T16:34:15.011Z,101213.89
2019-03-18T16:36:45.161Z,101211.27
2019-03-18T16:39:15.372Z,101214.31
2019-03-18T16:41:45.469Z,101217.01
2019-03-18T16:44:15.684Z,101216.58
2019-03-18T16:46:46.425Z,101223.20
2019-03-18T16:49:16.655Z,101223.66
2019-03-18T16:51:46.963Z,101229.76
2019-03-18T16:54:19.862Z,101228.87
2019-03-18T16:56:50.149Z,101230.16
2019-03-18T16:59:20.385Z,101234.10
2019-03-18T17:01:51.896Z,101233.16
2019-03-18T17:04:22.114Z,101235.79
2019-03-18T17:06:52.215Z,101239.59
2019-03-18T17:09:25.682Z,101249.25
2019-03-18T17:11:56.347Z,101244.34
2019-03-18T17:14:26.487Z,101266.16
2019-03-18T17:16:56.604Z,101259.95
2019-03-18T17:19:28.198Z,101266.00
2019-03-18T17:21:58.412Z,101269.08
2019-03-18T17:24:33.441Z,101272.91
2019-03-18T17:27:03.738Z,101269.80
2019-03-18T17:29:33.925Z,101278.54
2019-03-18T17:32:04.240Z,101288.59
2019-03-18T17:34:34.486Z,101290.72
2019-03-18T17:37:04.758Z,101297.74
2019-03-18T17:39:38.549Z,101299.36
2019-03-18T17:42:11.695Z,101304.15
2019-03-18T17:44:42.066Z,101310.22
2019-03-18T17:47:12.388Z,101312.43
2019-03-18T17:49:46.794Z,101315.81
2019-03-18T17:52:17.133Z,101320.66
2019-03-18T17:54:50.953Z,101326.28
2019-03-18T17:57:25.440Z,101323.19
2019-03-18T17:59:56.416Z,101329.74
2019-03-18T18:02:28.313Z,101339.30
2019-03-18T18:05:03.165Z,101340.58
2019-03-18T18:07:32.496Z,101349.42
2019-03-18T18:10:04.321Z,101351.09
2019-03-18T18:12:37.078Z,101357.17
2019-03-18T18:15:10.443Z,101360.20
2019-03-18T18:17:41.177Z,101365.39
2019-03-18T18:20:11.836Z,101372.34
2019-03-18T18:22:42.813Z,101376.25
2019-03-18T18:25:15.091Z,101374.88
2019-03-18T18:27:47.344Z,101382.31
2019-03-18T18:30:21.555Z,101383.15
2019-03-18T18:32:52.078Z,101383.67
2019-03-18T18:35:23.356Z,101388.48
2019-03-18T18:37:56.112Z,101397.25
2019-03-18T18:40:29.535Z,101402.84
2019-03-18T18:43:00.861Z,101399.33
2019-03-18T18:45:34.665Z,101400.63
2019-03-18T18:48:05.658Z,101412.86
2019-03-18T18:50:36.740Z,101416.78
2019-03-18T18:53:10.474Z,101425.94
2019-03-18T18:55:41.634Z,101435.09
2019-03-18T18:58:22.443Z,101433.79
2019-03-18T19:01:01.511Z,101436.39
2019-03-18T19:03:32.839Z,101438.95
2019-03-18T19:06:05.972Z,101446.91
2019-03-18T19:08:40.208Z,101444.70
2019-03-18T19:11:25.820Z,101446.97
2019-03-18T19:14:10.891Z,101453.80
2019-03-18T19:16:42.862Z,101451.37
2019-03-18T19:19:23.162Z,101452.23
2019-03-18T19:22:12.476Z,101455.80
2019-03-18T19:24:48.824Z,101462.76
2019-03-18T19:27:26.710Z,101470.25
2019-03-18T19:30:01.621Z,101466.31
2019-03-18T19:32:34.705Z,101464.99
2019-03-18T19:35:08.310Z,101472.88
2019-03-18T19:37:41.184Z,101474.55
2019-03-18T19:40:20.599Z,101475.75
2019-03-18T19:42:53.794Z,101490.11
2019-03-18T19:45:41.889Z,101487.35
2019-03-18T19:51:17.927Z,101488.98
2019-03-18T19:53:55.198Z,101489.28
2019-03-18T19:56:30.440Z,101491.54
2019-03-18T19:59:05.543Z,101498.94
2019-03-18T20:01:40.823Z,101508.08
2019-03-18T20:04:11.218Z,101505.84
2019-03-18T20:06:44.256Z,101514.06
2019-03-18T20:09:15.574Z,101515.37
2019-03-18T20:11:47.216Z,101523.25
2019-03-18T20:14:18.788Z,101534.05
2019-03-18T20:16:50.546Z,101530.11
2019-03-18T20:19:28.329Z,101535.50
2019-03-18T20:22:03.096Z,101535.16
2019-03-18T20:24:39.468Z,101533.45
2019-03-18T20:27:17.709Z,101545.34
2019-03-18T20:29:59.035Z,101551.87
2019-03-18T20:32:44.554Z,101558.73
2019-03-18T20:35:37.095Z,101571.71
2019-03-18T20:38:26.620Z,101573.83
2019-03-18T20:41:37.671Z,101578.54
2019-03-18T20:44:16.110Z,101589.55
2019-03-18T20:46:51.960Z,101585.63
2019-03-18T20:49:22.642Z,101591.88
2019-03-18T20:51:56.867Z,101586.66
2019-03-18T20:54:28.619Z,101595.80
2019-03-18T20:57:00.957Z,101591.44
2019-03-18T20:59:31.683Z,101595.35
2019-03-18T21:02:02.446Z,101587.77
2019-03-18T21:04:34.462Z,101594.61
2019-03-18T21:07:06.582Z,101604.23
2019-03-18T21:09:36.983Z,101598.47
2019-03-18T21:12:07.327Z,101598.28
2019-03-18T21:14:40.561Z,101604.81
2019-03-18T21:17:14.158Z,101609.58
2019-03-18T21:19:44.673Z,101619.87
2019-03-18T21:22:15.219Z,101617.72
2019-03-18T21:24:45.542Z,101624.27
2019-03-18T21:27:15.826Z,101624.54
2019-03-18T21:29:46.049Z,101625.91
2019-03-18T21:32:17.428Z,101630.58
2019-03-18T21:34:49.739Z,101631.53
2019-03-18T21:37:20.036Z,101632.84
2019-03-18T21:39:50.347Z,101642.88
2019-03-18T21:42:26.646Z,101644.27
2019-03-18T21:45:00.371Z,101651.81
2019-03-18T21:47:31.845Z,101656.62
2019-03-18T21:50:06.753Z,101657.06
2019-03-18T21:52:38.226Z,101658.42
2019-03-18T21:55:08.579Z,101659.48
2019-03-18T21:57:39.080Z,101655.98
2019-03-18T22:00:31.211Z,101661.60
2019-03-18T22:03:11.800Z,101663.35
2019-03-18T22:05:45.101Z,101666.12
2019-03-18T22:08:20.359Z,101663.35
2019-03-18T22:10:55.829Z,101666.41
2019-03-18T22:13:26.194Z,101663.30
2019-03-18T22:15:56.408Z,101667.08
2019-03-18T22:18:28.215Z,101669.89
2019-03-18T22:20:59.767Z,101667.93
2019-03-18T22:23:30.243Z,101664.53
2019-03-18T22:26:00.622Z,101668.23
2019-03-18T22:28:30.887Z,101672.11
2019-03-18T22:31:01.405Z,101666.90
2019-03-18T22:33:34.945Z,101675.13
2019-03-18T22:36:05.241Z,101672.23
2019-03-18T22:38:35.765Z,101678.66
2019-03-18T22:41:05.934Z,101684.44
2019-03-18T22:43:36.342Z,101681.13
2019-03-18T22:46:06.906Z,101680.22
2019-03-18T22:48:37.216Z,101692.25
2019-03-18T22:51:07.375Z,101683.84
2019-03-18T22:53:37.565Z,101688.11
2019-03-18T22:56:09.319Z,101692.55
2019-03-18T22:58:42.163Z,101692.02
2019-03-18T23:01:15.946Z,101697.79
2019-03-18T23:03:46.431Z,101699.91
2019-03-18T23:06:18.236Z,101699.40
2019-03-18T23:08:51.316Z,101699.80
2019-03-18T23:11:21.528Z,101704.09
2019-03-18T23:13:51.809Z,101704.06
2019-03-18T23:16:25.072Z,101706.18
2019-03-18T23:18:57.854Z,101700.98
2019-03-18T23:21:28.125Z,101709.03
2019-03-18T23:23:59.473Z,101710.55
2019-03-18T23:26:31.358Z,101703.09
2019-03-18T23:29:01.822Z,101702.15
2019-03-18T23:31:32.074Z,101706.88
2019-03-18T23:34:02.440Z,101704.80
2019-03-18T23:36:32.642Z,101711.34
2019-03-18T23:39:03.418Z,101714.73
2019-03-18T23:41:33.816Z,101707.25
2019-03-18T23:44:09.438Z,101708.22
2019-03-18T23:46:42.144Z,101715.54
2019-03-18T23:49:15.695Z,101731.69
2019-03-18T23:51:45.853Z,101729.91
2019-03-18T23:54:16.143Z,101730.44
2019-03-18T23:56:46.406Z,101733.19
2019-03-18T23:59:16.606Z,101731.58
